createdAt,value
2018-01-24T00:01:50.888Z,7.77
2018-01-24T00:04:17.124Z,7.07
2018-01-24T00:06:43.374Z,7.50
2018-01-24T00:09:09.615Z,6.80
2018-01-24T00:11:35.849Z,7.63
2018-01-24T00:14:02.100Z,9.00
2018-01-24T00:16:28.343Z,5.53
2018-01-24T00:18:55.331Z,7.40
2018-01-24T00:21:21.562Z,4.10
2018-01-24T00:23:47.800Z,4.40
2018-01-24T00:26:14.047Z,5.50
2018-01-24T00:28:40.439Z,6.80
2018-01-24T00:31:06.663Z,5.67
2018-01-24T00:33:32.915Z,8.33
2018-01-24T00:35:59.199Z,5.53
2018-01-24T00:38:26.183Z,8.30
2018-01-24T00:40:52.409Z,5.70
2018-01-24T00:43:18.656Z,10.93
2018-01-24T00:45:44.917Z,7.03
2018-01-24T00:48:12.091Z,5.93
2018-01-24T00:50:39.059Z,8.30
2018-01-24T00:53:05.314Z,10.07
2018-01-24T00:55:31.540Z,7.10
2018-01-24T00:57:57.879Z,4.00
2018-01-24T01:00:24.118Z,5.13
2018-01-24T01:02:50.347Z,4.30
2018-01-24T01:05:16.598Z,5.60
2018-01-24T01:07:50.780Z,3.70
2018-01-24T01:10:17.037Z,10.67
2018-01-24T01:12:43.242Z,6.50
2018-01-24T01:15:09.469Z,3.37
2018-01-24T01:17:35.701Z,6.80
2018-01-24T01:20:01.957Z,8.80
2018-01-24T01:22:28.183Z,7.60
2018-01-24T01:24:54.424Z,4.47
2018-01-24T01:27:21.401Z,7.03
2018-01-24T01:29:47.648Z,4.47
2018-01-24T01:32:13.878Z,3.30
2018-01-24T01:34:40.125Z,6.03
2018-01-24T01:37:06.415Z,3.93
2018-01-24T01:39:32.640Z,3.47
2018-01-24T01:41:58.886Z,5.90
2018-01-24T01:44:25.124Z,7.37
2018-01-24T01:46:51.350Z,7.50
2018-01-24T01:49:17.608Z,7.47
2018-01-24T01:51:43.834Z,5.83
2018-01-24T01:54:10.130Z,4.37
2018-01-24T01:56:36.382Z,5.03
2018-01-24T01:59:02.642Z,3.33
2018-01-24T02:01:28.866Z,7.03
2018-01-24T02:03:55.123Z,9.97
2018-01-24T02:06:22.074Z,15.93
2018-01-24T02:08:48.371Z,15.93
2018-01-24T02:11:15.034Z,12.80
2018-01-24T02:13:42.033Z,14.50
2018-01-24T02:16:08.288Z,19.27
2018-01-24T02:18:35.333Z,22.53
2018-01-24T02:21:01.593Z,14.33
2018-01-24T02:23:28.583Z,17.73
2018-01-24T02:25:54.804Z,22.83
2018-01-24T02:28:21.031Z,17.30
2018-01-24T02:30:47.270Z,22.60
2018-01-24T02:33:13.515Z,15.60
2018-01-24T02:35:39.738Z,20.50
2018-01-24T02:38:05.954Z,17.60
2018-01-24T02:40:32.187Z,19.13
2018-01-24T02:42:58.454Z,19.83
2018-01-24T02:45:24.761Z,24.23
2018-01-24T02:47:50.984Z,14.93
2018-01-24T02:50:17.200Z,20.23
2018-01-24T02:52:43.419Z,12.30
2018-01-24T02:55:16.747Z,19.70
2018-01-24T02:57:42.979Z,19.53
2018-01-24T03:00:09.215Z,22.97
2018-01-24T03:02:35.439Z,16.23
2018-01-24T03:05:01.676Z,13.73
2018-01-24T03:07:27.912Z,16.33
2018-01-24T03:09:54.877Z,13.30
2018-01-24T03:12:21.124Z,13.97
2018-01-24T03:14:47.344Z,12.73
2018-01-24T03:17:13.587Z,17.17
2018-01-24T03:19:39.815Z,14.80
2018-01-24T03:22:06.066Z,15.43
2018-01-24T03:24:32.295Z,16.33
2018-01-24T03:26:58.537Z,16.73
2018-01-24T03:29:24.743Z,14.97
2018-01-24T03:31:50.996Z,22.27
2018-01-24T03:34:17.212Z,24.47
2018-01-24T03:36:43.456Z,19.43
2018-01-24T03:39:09.660Z,23.47
2018-01-24T03:41:35.880Z,22.90
2018-01-24T03:44:02.136Z,31.87
2018-01-24T03:46:28.384Z,20.27
2018-01-24T03:48:54.615Z,21.20
2018-01-24T03:51:20.840Z,21.80
2018-01-24T03:53:47.074Z,19.30
2018-01-24T03:56:14.044Z,23.23
2018-01-24T03:58:40.266Z,21.53
2018-01-24T04:01:07.263Z,23.00
2018-01-24T04:03:33.475Z,24.40
2018-01-24T04:05:59.725Z,21.63
2018-01-24T04:08:25.929Z,23.00
2018-01-24T04:10:52.172Z,25.83
2018-01-24T04:13:18.399Z,24.40
2018-01-24T04:15:44.648Z,25.97
2018-01-24T04:18:10.867Z,27.53
2018-01-24T04:20:37.115Z,19.10
2018-01-24T04:23:03.331Z,26.37
2018-01-24T04:25:29.585Z,23.20
2018-01-24T04:27:55.837Z,27.93
2018-01-24T04:30:22.083Z,26.87
2018-01-24T04:32:48.323Z,22.60
2018-01-24T04:35:14.559Z,25.13
2018-01-24T04:37:40.784Z,22.50
2018-01-24T04:40:07.079Z,31.90
2018-01-24T04:42:33.307Z,23.43
2018-01-24T04:44:59.557Z,23.70
2018-01-24T04:47:25.808Z,21.23
2018-01-24T04:49:52.028Z,21.10
2018-01-24T04:52:18.278Z,20.90
2018-01-24T04:54:44.532Z,24.33
2018-01-24T04:57:10.782Z,24.23
2018-01-24T04:59:37.770Z,23.83
2018-01-24T05:02:04.024Z,20.57
2018-01-24T05:04:30.260Z,21.27
2018-01-24T05:06:56.494Z,21.60
2018-01-24T05:09:23.475Z,26.00
2018-01-24T05:11:49.703Z,25.37
2018-01-24T05:14:15.934Z,24.60
2018-01-24T05:16:42.186Z,19.27
2018-01-24T05:19:08.506Z,21.23
2018-01-24T05:21:34.796Z,20.13
2018-01-24T05:24:01.780Z,21.50
2018-01-24T05:26:28.057Z,22.17
2018-01-24T05:28:54.311Z,23.00
2018-01-24T05:31:21.344Z,15.60
2018-01-24T05:33:48.323Z,18.07
2018-01-24T05:36:14.579Z,18.67
2018-01-24T05:38:40.800Z,17.80
2018-01-24T05:41:07.094Z,16.77
2018-01-24T05:43:34.103Z,17.27
2018-01-24T05:46:00.367Z,23.87
2018-01-24T05:48:27.340Z,14.87
2018-01-24T05:50:53.748Z,12.20
2018-01-24T05:53:20.754Z,11.57
2018-01-24T05:55:47.051Z,12.40
2018-01-24T05:58:13.324Z,8.90
2018-01-24T06:00:39.608Z,10.10
2018-01-24T06:03:05.858Z,9.43
2018-01-24T06:05:32.192Z,9.70
2018-01-24T06:07:58.520Z,4.70
2018-01-24T06:10:24.814Z,9.93
2018-01-24T06:12:51.855Z,5.50
2018-01-24T06:15:18.901Z,3.20
2018-01-24T06:17:45.143Z,5.70
2018-01-24T06:20:11.431Z,5.90
2018-01-24T06:22:39.135Z,4.43
2018-01-24T06:25:05.399Z,9.53
2018-01-24T06:27:31.635Z,6.60
2018-01-24T06:29:57.869Z,10.60
2018-01-24T06:32:24.091Z,7.63
2018-01-24T06:34:50.341Z,8.90
2018-01-24T06:37:16.552Z,9.70
2018-01-24T06:39:42.775Z,10.50
2018-01-24T06:42:08.988Z,7.50
2018-01-24T06:44:35.211Z,10.40
2018-01-24T06:47:01.444Z,8.40
2018-01-24T06:49:27.719Z,11.80
2018-01-24T06:51:53.968Z,7.47
2018-01-24T06:54:20.984Z,8.10
2018-01-24T06:56:47.212Z,5.13
2018-01-24T06:59:13.470Z,3.03
2018-01-24T07:01:40.442Z,2.87
2018-01-24T07:04:06.680Z,3.30
2018-01-24T07:06:32.904Z,6.37
2018-01-24T07:08:59.136Z,6.70
2018-01-24T07:11:25.452Z,4.67
2018-01-24T07:17:09.584Z,4.50
2018-01-24T07:19:35.894Z,5.00
2018-01-24T07:22:02.152Z,4.23
2018-01-24T07:24:28.408Z,4.40
2018-01-24T07:26:55.386Z,3.97
2018-01-24T07:29:21.660Z,4.50
2018-01-24T07:31:47.868Z,1.50
2018-01-24T07:34:14.111Z,1.60
2018-01-24T07:36:40.465Z,1.83
2018-01-24T07:39:06.695Z,1.70
2018-01-24T07:41:32.947Z,1.13
2018-01-24T07:43:59.209Z,1.80
2018-01-24T07:46:25.420Z,1.23
2018-01-24T07:48:51.717Z,1.57
2018-01-24T07:51:17.989Z,1.30
2018-01-24T07:53:44.275Z,1.80
2018-01-24T07:56:11.263Z,2.13
2018-01-24T07:58:37.643Z,0.97
2018-01-24T08:01:03.927Z,4.20
2018-01-24T08:03:30.201Z,2.07
2018-01-24T08:05:57.179Z,1.00
2018-01-24T08:08:23.435Z,0.80
2018-01-24T08:10:49.704Z,1.97
2018-01-24T08:13:15.973Z,1.63
2018-01-24T08:15:42.290Z,1.10
2018-01-24T08:18:08.540Z,2.33
2018-01-24T08:20:34.768Z,1.07
2018-01-24T08:23:01.019Z,1.60
2018-01-24T08:25:27.274Z,3.33
2018-01-24T08:27:53.550Z,0.80
2018-01-24T08:30:19.810Z,1.47
2018-01-24T08:32:46.088Z,1.30
2018-01-24T08:35:12.324Z,1.43
2018-01-24T08:37:38.588Z,0.80
2018-01-24T08:40:04.862Z,3.10
2018-01-24T08:42:31.916Z,2.53
2018-01-24T08:44:58.939Z,1.73
2018-01-24T08:47:25.432Z,1.40
2018-01-24T08:49:51.727Z,0.70
2018-01-24T08:52:18.705Z,1.17
2018-01-24T08:54:44.943Z,1.63
2018-01-24T08:57:11.202Z,0.73
2018-01-24T08:59:37.967Z,1.00
2018-01-24T09:02:04.208Z,1.80
2018-01-24T09:04:31.494Z,0.83
2018-01-24T09:06:57.748Z,0.60
2018-01-24T09:09:23.988Z,4.50
2018-01-24T09:11:50.704Z,1.00
2018-01-24T09:14:17.040Z,0.80
2018-01-24T09:16:43.370Z,1.23
2018-01-24T09:19:09.716Z,0.80
2018-01-24T09:21:36.402Z,1.10
2018-01-24T09:24:03.728Z,0.70
2018-01-24T09:26:29.994Z,0.87
2018-01-24T09:28:56.241Z,0.60
2018-01-24T09:31:22.488Z,0.60
2018-01-24T09:33:48.733Z,1.33
2018-01-24T09:36:14.986Z,1.10
2018-01-24T09:38:41.998Z,1.00
2018-01-24T09:41:08.324Z,2.63
2018-01-24T09:43:34.573Z,1.57
2018-01-24T09:46:00.969Z,1.00
2018-01-24T09:48:27.227Z,0.80
2018-01-24T09:50:53.443Z,1.00
2018-01-24T09:53:19.665Z,1.93
2018-01-24T09:55:45.913Z,1.17
2018-01-24T09:58:12.119Z,0.70
2018-01-24T10:00:38.413Z,2.70
2018-01-24T10:03:05.429Z,1.10
2018-01-24T10:05:31.687Z,0.90
2018-01-24T10:07:58.669Z,1.40
2018-01-24T10:10:24.904Z,0.70
2018-01-24T10:12:51.160Z,0.87
2018-01-24T10:15:17.414Z,1.63
2018-01-24T10:17:44.388Z,3.30
2018-01-24T10:20:10.635Z,0.90
2018-01-24T10:22:36.871Z,2.10
2018-01-24T10:25:03.148Z,1.50
2018-01-24T10:27:30.138Z,1.00
2018-01-24T10:29:56.432Z,1.77
2018-01-24T10:32:22.748Z,2.47
2018-01-24T10:34:48.992Z,1.13
2018-01-24T10:37:16.052Z,1.10
2018-01-24T10:39:42.350Z,1.00
2018-01-24T10:42:08.707Z,0.80
2018-01-24T10:44:34.984Z,1.90
2018-01-24T10:47:01.223Z,0.87
2018-01-24T10:49:27.461Z,0.70
2018-01-24T10:51:53.731Z,0.80
2018-01-24T10:54:19.993Z,0.70
2018-01-24T10:56:46.493Z,1.93
2018-01-24T10:59:12.795Z,2.50
2018-01-24T11:01:39.047Z,0.87
2018-01-24T11:04:05.311Z,0.90
2018-01-24T11:06:31.527Z,0.80
2018-01-24T11:08:57.796Z,0.73
2018-01-24T11:11:24.043Z,0.90
2018-01-24T11:13:50.276Z,0.87
2018-01-24T11:16:16.577Z,0.60
2018-01-24T11:18:42.815Z,1.13
2018-01-24T11:21:09.067Z,1.00
2018-01-24T11:23:35.395Z,0.87
2018-01-24T11:26:02.384Z,5.23
2018-01-24T11:28:28.682Z,1.80
2018-01-24T11:30:55.724Z,2.20
2018-01-24T11:33:22.032Z,0.67
2018-01-24T11:35:48.282Z,0.60
2018-01-24T11:38:15.360Z,1.10
2018-01-24T11:40:41.644Z,1.03
2018-01-24T11:43:07.917Z,0.60
2018-01-24T11:45:34.288Z,0.70
2018-01-24T11:48:00.534Z,0.80
2018-01-24T11:50:26.833Z,0.90
2018-01-24T11:52:53.078Z,1.17
2018-01-24T11:55:19.394Z,3.53
2018-01-24T11:57:45.632Z,0.60
2018-01-24T12:00:12.720Z,0.60
2018-01-24T12:02:39.698Z,1.00
2018-01-24T12:05:12.975Z,0.60
2018-01-24T12:07:40.009Z,0.70
2018-01-24T12:10:06.332Z,1.00
2018-01-24T12:12:32.584Z,5.23
2018-01-24T12:14:59.643Z,0.80
2018-01-24T12:17:26.642Z,0.83
2018-01-24T12:19:52.876Z,2.10
2018-01-24T12:22:19.133Z,0.73
2018-01-24T12:24:46.171Z,1.07
2018-01-24T12:27:13.313Z,0.80
2018-01-24T12:29:39.612Z,2.80
2018-01-24T12:32:05.868Z,1.10
2018-01-24T12:34:32.173Z,0.70
2018-01-24T12:36:58.428Z,0.93
2018-01-24T12:39:24.691Z,1.10
2018-01-24T12:41:51.665Z,0.90
2018-01-24T12:44:17.905Z,0.77
2018-01-24T12:46:44.155Z,8.43
2018-01-24T12:49:10.424Z,7.53
2018-01-24T12:51:37.288Z,16.20
2018-01-24T12:54:03.554Z,6.50
2018-01-24T12:56:29.808Z,8.20
2018-01-24T12:58:56.054Z,0.90
2018-01-24T13:01:23.084Z,1.20
2018-01-24T13:03:49.332Z,1.20
2018-01-24T13:06:16.346Z,2.10
2018-01-24T13:08:42.596Z,0.90
2018-01-24T13:11:09.608Z,0.80
2018-01-24T13:13:35.867Z,1.00
2018-01-24T13:16:02.989Z,2.53
2018-01-24T13:18:29.292Z,0.57
2018-01-24T13:20:56.221Z,0.80
2018-01-24T13:23:22.456Z,1.03
2018-01-24T13:25:48.703Z,3.63
2018-01-24T13:28:14.989Z,0.60
2018-01-24T13:30:41.996Z,1.73
2018-01-24T13:33:09.013Z,1.07
2018-01-24T13:35:35.338Z,0.63
2018-01-24T13:38:03.263Z,0.87
2018-01-24T13:40:29.602Z,0.90
2018-01-24T13:42:55.840Z,0.60
2018-01-24T13:45:22.080Z,0.80
2018-01-24T13:47:49.052Z,0.70
2018-01-24T13:50:15.358Z,0.80
2018-01-24T13:52:42.372Z,0.57
2018-01-24T13:55:09.589Z,1.00
2018-01-24T13:57:35.855Z,0.70
2018-01-24T14:00:02.105Z,0.60
2018-01-24T14:02:28.569Z,1.70
2018-01-24T14:04:54.803Z,0.60
2018-01-24T14:07:21.053Z,2.00
2018-01-24T14:09:47.327Z,4.20
2018-01-24T14:12:13.605Z,0.97
2018-01-24T14:14:39.871Z,0.67
2018-01-24T14:17:06.139Z,1.67
2018-01-24T14:19:33.105Z,0.60
2018-01-24T14:21:59.355Z,1.67
2018-01-24T14:24:25.627Z,1.23
2018-01-24T14:26:52.892Z,0.80
2018-01-24T14:29:19.189Z,1.40
2018-01-24T14:31:45.447Z,0.70
2018-01-24T14:34:12.420Z,0.50
2018-01-24T14:36:38.704Z,0.60
2018-01-24T14:39:04.965Z,1.07
2018-01-24T14:41:32.020Z,2.23
2018-01-24T14:43:58.281Z,0.50
2018-01-24T14:46:24.559Z,0.60
2018-01-24T14:48:51.534Z,0.60
2018-01-24T14:51:17.779Z,0.53
2018-01-24T14:53:44.368Z,0.70
2018-01-24T14:56:11.364Z,2.00
2018-01-24T14:58:37.615Z,2.17
2018-01-24T15:01:03.997Z,1.67
2018-01-24T15:03:30.245Z,3.00
2018-01-24T15:05:56.548Z,2.70
2018-01-24T15:08:23.535Z,8.37
2018-01-24T15:10:49.893Z,5.93
2018-01-24T15:13:16.159Z,3.67
2018-01-24T15:15:43.271Z,2.50
2018-01-24T15:18:09.586Z,4.07
2018-01-24T15:20:35.942Z,3.30
2018-01-24T15:23:02.240Z,2.83
2018-01-24T15:25:28.544Z,3.87
2018-01-24T15:27:54.870Z,4.40
2018-01-24T15:30:21.123Z,4.10
2018-01-24T15:32:47.430Z,4.70
2018-01-24T15:35:13.810Z,5.93
2018-01-24T15:37:40.158Z,4.90
2018-01-24T15:40:07.244Z,4.93
2018-01-24T15:42:33.556Z,3.80
2018-01-24T15:45:00.588Z,5.80
2018-01-24T15:47:26.866Z,4.40
2018-01-24T15:49:53.142Z,5.40
2018-01-24T15:52:20.158Z,3.93
2018-01-24T15:54:46.429Z,3.00
2018-01-24T15:57:12.811Z,2.20
2018-01-24T15:59:39.131Z,3.13
2018-01-24T16:02:05.421Z,5.50
2018-01-24T16:04:31.803Z,3.10
2018-01-24T16:06:58.147Z,3.70
2018-01-24T16:09:24.464Z,2.60
2018-01-24T16:11:57.626Z,2.03
2018-01-24T16:14:24.687Z,3.30
2018-01-24T16:16:51.031Z,3.67
2018-01-24T16:19:17.328Z,2.80
2018-01-24T16:21:44.405Z,2.60
2018-01-24T16:24:10.666Z,3.87
2018-01-24T16:26:36.972Z,2.57
2018-01-24T16:29:04.239Z,4.30
2018-01-24T16:31:30.507Z,3.40
2018-01-24T16:33:56.883Z,3.83
2018-01-24T16:36:23.228Z,4.20
2018-01-24T16:38:49.502Z,3.67
2018-01-24T16:41:15.841Z,3.63
2018-01-24T16:43:42.858Z,3.43
2018-01-24T16:46:09.188Z,4.20
2018-01-24T16:48:35.464Z,4.13
2018-01-24T16:51:02.529Z,7.57
2018-01-24T16:53:28.798Z,5.13
2018-01-24T16:55:55.052Z,6.00
2018-01-24T16:58:21.334Z,10.57
2018-01-24T17:00:47.596Z,7.67
2018-01-24T17:03:13.890Z,7.87
2018-01-24T17:05:40.124Z,10.40
2018-01-24T17:08:06.376Z,8.57
2018-01-24T17:10:32.630Z,9.70
2018-01-24T17:12:58.958Z,8.60
2018-01-24T17:15:25.272Z,9.40
2018-01-24T17:17:51.499Z,9.47
2018-01-24T17:20:17.817Z,8.90
2018-01-24T17:22:44.093Z,7.30
2018-01-24T17:25:11.069Z,11.13
2018-01-24T17:27:37.393Z,7.27
2018-01-24T17:30:03.671Z,10.90
2018-01-24T17:32:29.959Z,10.43
2018-01-24T17:34:56.325Z,12.17
2018-01-24T17:37:22.625Z,11.67
2018-01-24T17:39:48.951Z,13.47
2018-01-24T17:42:15.313Z,13.00
2018-01-24T17:44:41.596Z,12.87
2018-01-24T17:47:08.608Z,13.67
2018-01-24T17:49:34.855Z,13.27
2018-01-24T17:52:01.101Z,14.37
2018-01-24T17:54:28.063Z,13.30
2018-01-24T17:56:54.355Z,11.70
2018-01-24T17:59:20.628Z,13.70
2018-01-24T18:01:46.906Z,19.63
2018-01-24T18:04:13.176Z,13.17
2018-01-24T18:06:39.449Z,11.70
2018-01-24T18:09:05.704Z,11.67
2018-01-24T18:11:31.986Z,12.40
2018-01-24T18:13:58.358Z,15.40
2018-01-24T18:16:24.710Z,17.03
2018-01-24T18:18:51.717Z,20.20
2018-01-24T18:21:18.152Z,17.07
2018-01-24T18:23:44.469Z,19.47
2018-01-24T18:26:10.766Z,19.93
2018-01-24T18:28:37.145Z,17.43
2018-01-24T18:31:04.058Z,20.23
2018-01-24T18:33:30.323Z,19.60
2018-01-24T18:35:56.561Z,19.30
2018-01-24T18:38:23.551Z,19.10
2018-01-24T18:40:49.821Z,16.87
2018-01-24T18:43:16.328Z,15.97
2018-01-24T18:45:43.392Z,18.13
2018-01-24T18:48:10.280Z,17.03
2018-01-24T18:50:38.106Z,26.13
2018-01-24T18:53:04.346Z,15.20
2018-01-24T18:55:31.134Z,19.03
2018-01-24T18:57:58.178Z,17.73
2018-01-24T19:00:25.232Z,18.20
2018-01-24T19:02:52.263Z,17.00
2018-01-24T19:05:18.617Z,15.90
2018-01-24T19:07:45.618Z,14.73
2018-01-24T19:10:11.900Z,16.10
2018-01-24T19:12:38.141Z,13.53
2018-01-24T19:15:04.424Z,10.70
2018-01-24T19:17:30.717Z,9.43
2018-01-24T19:19:57.025Z,9.43
2018-01-24T19:22:23.321Z,12.40
2018-01-24T19:24:49.555Z,12.43
2018-01-24T19:27:16.612Z,9.97
2018-01-24T19:29:43.624Z,7.50
2018-01-24T19:32:09.906Z,10.00
2018-01-24T19:34:36.340Z,12.77
2018-01-24T19:37:02.627Z,11.33
2018-01-24T19:39:29.322Z,8.73
2018-01-24T19:41:55.668Z,15.97
2018-01-24T19:44:22.040Z,9.53
2018-01-24T19:46:49.512Z,10.30
2018-01-24T19:49:16.566Z,9.10
2018-01-24T19:51:43.643Z,8.50
2018-01-24T19:54:13.187Z,6.67
2018-01-24T19:56:39.635Z,3.33
2018-01-24T19:59:20.734Z,4.40
2018-01-24T20:01:47.749Z,4.27
2018-01-24T20:04:14.116Z,3.70
2018-01-24T20:06:41.160Z,2.80
2018-01-24T20:09:08.344Z,2.20
2018-01-24T20:11:34.634Z,2.43
2018-01-24T20:14:01.692Z,2.90
2018-01-24T20:16:28.069Z,2.37
2018-01-24T20:18:54.356Z,2.37
2018-01-24T20:21:21.411Z,2.63
2018-01-24T20:23:47.843Z,2.37
2018-01-24T20:26:14.311Z,2.40
2018-01-24T20:28:40.758Z,3.67
2018-01-24T20:31:07.065Z,5.23
2018-01-24T20:33:33.367Z,10.07
2018-01-24T20:35:59.673Z,10.30
2018-01-24T20:38:26.953Z,7.50
2018-01-24T20:40:53.981Z,9.63
2018-01-24T20:43:21.764Z,3.53
2018-01-24T20:45:48.100Z,5.30
2018-01-24T20:48:15.180Z,8.07
2018-01-24T20:50:41.532Z,6.20
2018-01-24T20:53:07.786Z,6.50
2018-01-24T20:55:34.098Z,4.20
2018-01-24T20:58:00.392Z,4.73
2018-01-24T21:00:26.715Z,2.40
2018-01-24T21:02:52.986Z,5.23
2018-01-24T21:05:19.312Z,4.73
2018-01-24T21:07:45.669Z,6.73
2018-01-24T21:10:11.943Z,3.07
2018-01-24T21:12:38.228Z,3.30
2018-01-24T21:15:05.357Z,1.67
2018-01-24T21:17:31.670Z,2.10
2018-01-24T21:19:57.941Z,5.27
2018-01-24T21:22:24.199Z,8.00
2018-01-24T21:24:50.557Z,1.30
2018-01-24T21:27:16.867Z,1.73
2018-01-24T21:30:04.762Z,4.57
2018-01-24T21:35:57.953Z,4.00
2018-01-24T21:38:24.208Z,2.90
2018-01-24T21:40:50.463Z,3.17
2018-01-24T21:43:16.762Z,3.30
2018-01-24T21:45:43.994Z,4.77
2018-01-24T21:48:10.990Z,3.87
2018-01-24T21:50:37.828Z,3.57
2018-01-24T21:53:04.098Z,4.87
2018-01-24T21:55:30.339Z,2.50
2018-01-24T21:57:57.388Z,4.27
2018-01-24T22:00:24.218Z,5.97
2018-01-24T22:02:50.485Z,2.57
2018-01-24T22:05:17.495Z,2.70
2018-01-24T22:07:43.758Z,2.50
2018-01-24T22:10:10.371Z,3.60
2018-01-24T22:12:37.448Z,3.70
2018-01-24T22:15:04.477Z,3.83
2018-01-24T22:17:30.775Z,5.90
2018-01-24T22:22:29.084Z,2.73
2018-01-24T22:24:55.420Z,4.63
2018-01-24T22:27:21.755Z,3.87
2018-01-24T22:29:48.118Z,5.80
2018-01-24T22:32:14.420Z,5.27
2018-01-24T22:34:40.731Z,3.67
2018-01-24T22:37:07.049Z,3.77
2018-01-24T22:39:34.141Z,2.83
2018-01-24T22:42:01.247Z,2.47
2018-01-24T22:44:27.547Z,3.60
2018-01-24T22:46:53.838Z,3.00
2018-01-24T22:49:21.624Z,4.13
2018-01-24T22:51:48.634Z,4.93
2018-01-24T22:54:14.882Z,4.30
2018-01-24T22:56:41.143Z,5.10
2018-01-24T22:59:07.357Z,6.10
2018-01-24T23:01:35.176Z,9.27
2018-01-24T23:04:01.432Z,8.40
2018-01-24T23:06:27.694Z,6.60
2018-01-24T23:08:54.690Z,11.20
2018-01-24T23:11:21.091Z,14.13
2018-01-24T23:13:47.354Z,12.40
2018-01-24T23:16:13.739Z,12.50
2018-01-24T23:18:40.057Z,15.87
2018-01-24T23:21:07.098Z,13.10
2018-01-24T23:23:35.012Z,16.37
2018-01-24T23:26:01.363Z,16.00
2018-01-24T23:28:27.696Z,12.97
2018-01-24T23:30:54.102Z,16.67
2018-01-24T23:33:20.605Z,16.43
2018-01-24T23:35:47.687Z,13.40
2018-01-24T23:38:13.979Z,15.30
2018-01-24T23:40:41.101Z,15.63
2018-01-24T23:43:07.421Z,15.27
2018-01-24T23:45:34.675Z,11.27
2018-01-24T23:48:01.012Z,13.27
2018-01-24T23:50:27.375Z,13.30
2018-01-24T23:52:53.804Z,10.40
2018-01-24T23:55:20.976Z,12.30
2018-01-24T23:57:47.304Z,8.37
